Time;durP1;ratioP1;P1;durP2;ratioP2;P2;SDS_P1;SDS_P2;PMS_P1;PMS_P2;Temp;Humidity;BMP_temperature;BMP_pressure;BME280_temperature;BME280_humidity;BME280_pressure;Samples;Min_cycle;Max_cycle;Signal;HPM_P1;HPM_P2
2023/06/09 00:00:17;;;;;;;0.22;0.22;;;12.20;99.90;;;;;;5036852;28;20494;-65
2023/06/09 00:02:44;;;;;;;0.03;0.03;;;12.20;99.90;;;;;;5037382;28;20040;-64
2023/06/09 00:05:11;;;;;;;1.65;0.73;;;12.20;99.90;;;;;;5076306;28;20052;-64
2023/06/09 00:07:37;;;;;;;0.10;0.10;;;12.20;99.90;;;;;;5039914;28;20037;-64
2023/06/09 00:10:03;;;;;;;0.20;0.20;;;12.20;99.90;;;;;;5041538;28;20112;-64
2023/06/09 00:12:29;;;;;;;0.90;0.60;;;12.20;99.90;;;;;;5036195;28;20088;-64
2023/06/09 00:14:55;;;;;;;3.88;0.47;;;12.20;99.90;;;;;;5036103;28;20079;-64
2023/06/09 00:17:24;;;;;;;0.65;0.30;;;12.30;99.90;;;;;;5034366;28;20517;-65
2023/06/09 00:19:52;;;;;;;0.17;0.17;;;12.30;99.90;;;;;;5035671;28;20044;-64
2023/06/09 00:22:19;;;;;;;0.65;0.35;;;12.30;99.90;;;;;;5034946;28;20123;-64
2023/06/09 00:24:46;;;;;;;0.52;0.45;;;12.30;99.90;;;;;;5028988;28;20056;-64
2023/06/09 00:27:11;;;;;;;0.20;0.20;;;12.30;99.90;;;;;;5053066;28;20041;-64
2023/06/09 00:29:37;;;;;;;0.30;0.20;;;12.30;99.90;;;;;;5038628;28;20040;-64
2023/06/09 00:32:04;;;;;;;0.52;0.52;;;12.30;99.90;;;;;;5037738;28;20029;-64
2023/06/09 00:34:30;;;;;;;0.40;0.13;;;12.30;99.90;;;;;;5072035;28;20051;-64
2023/06/09 00:36:55;;;;;;;0.40;0.40;;;12.40;99.90;;;;;;5036048;28;20037;-64
2023/06/09 00:39:22;;;;;;;0.10;0.10;;;12.40;99.90;;;;;;5034349;28;20369;-64
2023/06/09 00:41:48;;;;;;;0.25;0.17;;;12.40;99.90;;;;;;5034529;28;20033;-64
2023/06/09 00:44:14;;;;;;;0.20;0.20;;;12.40;99.90;;;;;;5031049;28;20036;-64
2023/06/09 00:46:41;;;;;;;6.13;1.95;;;12.40;99.90;;;;;;5030987;28;20051;-64
2023/06/09 00:49:06;;;;;;;0.05;0.05;;;12.40;99.90;;;;;;5030774;28;20049;-64
2023/06/09 00:51:35;;;;;;;0.57;0.40;;;12.30;99.90;;;;;;5032866;28;20036;-64
2023/06/09 00:54:02;;;;;;;0.10;0.10;;;12.40;99.90;;;;;;5037778;28;20476;-64
2023/06/09 00:56:29;;;;;;;0.30;0.20;;;12.40;99.90;;;;;;5038103;28;20095;-64
2023/06/09 00:58:55;;;;;;;0.40;0.40;;;12.40;99.90;;;;;;5038145;28;20051;-64
2023/06/09 01:01:21;;;;;;;5.88;0.52;;;12.40;99.90;;;;;;5069835;28;20488;-64
2023/06/09 01:03:49;;;;;;;0.45;0.45;;;12.40;99.90;;;;;;5069922;28;20051;-64
2023/06/09 01:06:31;;;;;;;0.32;0.20;;;12.40;99.90;;;;;;5070068;28;20044;-64
2023/06/09 01:09:10;;;;;;;0.52;0.35;;;12.40;99.90;;;;;;5068524;28;20049;-64
2023/06/09 01:11:48;;;;;;;0.10;0.03;;;12.40;99.90;;;;;;5038356;28;20106;-64
2023/06/09 01:14:23;;;;;;;0.20;0.20;;;12.40;99.90;;;;;;5069411;28;20463;-64
2023/06/09 01:17:02;;;;;;;0.45;0.45;;;12.40;99.90;;;;;;5040997;28;20134;-64
2023/06/09 01:19:45;;;;;;;0.30;0.20;;;12.40;99.90;;;;;;5075281;28;20047;-64
2023/06/09 01:22:27;;;;;;;0.28;0.20;;;12.40;99.90;;;;;;5037701;28;20635;-64
2023/06/09 01:25:17;;;;;;;0.10;0.10;;;12.50;99.90;;;;;;5041130;28;20231;-64
2023/06/09 01:27:45;;;;;;;0.47;0.40;;;12.50;99.90;;;;;;5033481;28;20057;-64
2023/06/09 01:30:13;;;;;;;2.55;0.43;;;12.40;99.90;;;;;;5040542;28;20044;-64
2023/06/09 01:32:41;;;;;;;0.08;0.08;;;12.40;99.90;;;;;;5034781;28;21211;-64
2023/06/09 01:35:07;;;;;;;1.92;0.60;;;12.40;99.90;;;;;;5043371;28;20080;-64
2023/06/09 01:37:33;;;;;;;0.52;0.20;;;12.50;99.90;;;;;;5034326;28;20135;-65
2023/06/09 01:39:59;;;;;;;1.27;0.35;;;12.50;99.90;;;;;;5073011;28;20037;-64
2023/06/09 01:42:25;;;;;;;0.55;0.30;;;12.40;99.90;;;;;;5069396;28;20049;-64
2023/06/09 01:44:50;;;;;;;0.65;0.30;;;12.40;99.90;;;;;;5035544;28;20048;-65
2023/06/09 01:47:19;;;;;;;0.25;0.25;;;12.40;99.90;;;;;;5034266;28;20041;-64
2023/06/09 01:50:18;;;;;;;2.08;0.55;;;12.40;99.90;;;;;;5038606;28;20052;-65
2023/06/09 01:52:57;;;;;;;0.60;0.10;;;12.40;99.90;;;;;;5025539;28;20164;-64
2023/06/09 01:55:30;;;;;;;0.20;0.20;;;12.40;99.90;;;;;;5036861;28;20051;-65
2023/06/09 01:58:09;;;;;;;0.25;0.25;;;12.40;99.90;;;;;;5016243;28;20104;-64
2023/06/09 02:00:36;;;;;;;0.77;0.40;;;12.40;99.90;;;;;;5035340;28;20033;-65
2023/06/09 02:03:05;;;;;;;0.43;0.43;;;12.30;99.90;;;;;;5033797;28;20499;-63
2023/06/09 02:05:33;;;;;;;0.30;0.20;;;12.30;99.90;;;;;;5038463;28;20045;-64
2023/06/09 02:08:00;;;;;;;1.75;1.20;;;12.30;99.90;;;;;;5037917;28;20041;-64
2023/06/09 02:10:26;;;;;;;2.28;1.25;;;12.30;99.90;;;;;;5044218;28;20045;-65
2023/06/09 02:12:52;;;;;;;0.90;0.63;;;12.20;99.90;;;;;;5037800;28;20037;-64
2023/06/09 02:15:19;;;;;;;1.10;0.93;;;12.20;99.90;;;;;;5071509;28;20048;-64
2023/06/09 02:17:45;;;;;;;0.32;0.20;;;12.20;99.90;;;;;;5067365;28;20415;-64
2023/06/09 02:20:11;;;;;;;1.73;0.73;;;12.20;99.90;;;;;;5042896;28;20037;-64
2023/06/09 02:22:36;;;;;;;0.47;0.38;;;12.20;99.90;;;;;;5035470;28;20099;-64
2023/06/09 02:25:04;;;;;;;1.05;0.25;;;12.10;99.90;;;;;;5045376;28;20049;-64
2023/06/09 02:27:30;;;;;;;1.65;0.57;;;12.10;99.90;;;;;;5036276;28;20103;-64
2023/06/09 02:29:55;;;;;;;0.10;0.10;;;12.10;99.90;;;;;;5072331;28;20036;-64
2023/06/09 02:32:22;;;;;;;0.52;0.40;;;12.10;99.90;;;;;;5035427;28;20093;-64
2023/06/09 02:34:47;;;;;;;0.95;0.30;;;12.00;99.90;;;;;;5044790;28;20098;-64
2023/06/09 02:37:13;;;;;;;0.35;0.35;;;12.00;99.90;;;;;;5037019;28;20037;-64
2023/06/09 02:39:39;;;;;;;1.08;0.38;;;12.00;99.90;;;;;;5070021;28;20098;-64
2023/06/09 02:42:05;;;;;;;0.25;0.25;;;12.00;99.90;;;;;;5029923;28;20040;-64
2023/06/09 02:44:36;;;;;;;0.10;0.10;;;12.00;99.90;;;;;;5032415;28;20068;-64
2023/06/09 02:47:05;;;;;;;0.38;0.38;;;12.00;99.90;;;;;;5034783;28;20051;-64
2023/06/09 02:49:31;;;;;;;0.75;0.43;;;12.00;99.90;;;;;;5035956;28;20037;-65
2023/06/09 02:51:56;;;;;;;2.65;0.43;;;12.00;99.90;;;;;;5069765;28;20043;-65
2023/06/09 02:54:22;;;;;;;0.75;0.75;;;12.00;99.90;;;;;;5031056;28;20060;-64
2023/06/09 02:56:47;;;;;;;0.10;0.10;;;11.90;99.90;;;;;;5036449;28;20041;-64
2023/06/09 02:59:13;;;;;;;0.63;0.40;;;11.90;99.90;;;;;;5039711;28;20344;-64
2023/06/09 03:01:39;;;;;;;0.45;0.45;;;11.90;99.90;;;;;;5036136;28;20123;-64
2023/06/09 03:04:06;;;;;;;0.20;0.20;;;11.90;99.90;;;;;;5037126;28;20052;-64
2023/06/09 03:06:33;;;;;;;0.13;0.13;;;11.80;99.90;;;;;;5038821;28;20388;-64
2023/06/09 03:09:01;;;;;;;0.20;0.20;;;11.80;99.90;;;;;;5036640;28;20045;-64
2023/06/09 03:11:26;;;;;;;0.30;0.30;;;11.80;99.90;;;;;;5036950;28;20087;-64
2023/06/09 03:13:52;;;;;;;0.77;0.60;;;11.70;99.90;;;;;;5063367;28;20067;-64
2023/06/09 03:16:17;;;;;;;0.90;0.35;;;11.70;99.90;;;;;;5036759;28;20483;-65
2023/06/09 03:18:43;;;;;;;0.32;0.30;;;11.70;99.90;;;;;;5067675;28;20041;-64
2023/06/09 03:21:09;;;;;;;0.20;0.20;;;11.60;99.90;;;;;;5030862;28;20044;-64
2023/06/09 03:23:35;;;;;;;0.38;0.38;;;11.60;99.90;;;;;;5063773;28;20044;-64
2023/06/09 03:26:01;;;;;;;1.20;0.65;;;11.50;99.90;;;;;;5038118;28;20036;-64
2023/06/09 03:28:26;;;;;;;0.73;0.68;;;11.50;99.90;;;;;;5031795;28;20396;-64
2023/06/09 03:30:53;;;;;;;2.20;0.50;;;11.50;99.90;;;;;;5036884;28;20033;-64
2023/06/09 03:33:19;;;;;;;0.20;0.20;;;11.50;99.90;;;;;;5029927;28;20053;-64
2023/06/09 03:35:45;;;;;;;0.65;0.40;;;11.50;99.90;;;;;;5040908;28;20057;-64
2023/06/09 03:38:10;;;;;;;0.30;0.30;;;11.50;99.90;;;;;;5034273;28;20412;-64
2023/06/09 03:40:36;;;;;;;1.27;0.32;;;11.50;99.90;;;;;;5032398;28;20115;-63
2023/06/09 03:43:02;;;;;;;0.75;0.70;;;11.50;99.90;;;;;;5033689;28;20152;-64
2023/06/09 03:45:27;;;;;;;0.63;0.63;;;11.50;99.90;;;;;;5039054;28;20052;-64
2023/06/09 03:47:53;;;;;;;2.50;0.80;;;11.50;99.90;;;;;;5038671;28;20048;-64
2023/06/09 03:50:18;;;;;;;0.10;0.10;;;11.50;99.90;;;;;;5030988;28;20061;-66
2023/06/09 03:52:44;;;;;;;2.75;2.28;;;11.50;99.90;;;;;;5033144;28;20387;-64
2023/06/09 03:55:12;;;;;;;0.40;0.40;;;11.50;99.90;;;;;;5067256;28;20036;-64
2023/06/09 03:57:37;;;;;;;0.20;0.20;;;11.50;99.90;;;;;;5033785;28;20123;-64
2023/06/09 04:00:03;;;;;;;0.10;0.10;;;11.60;99.90;;;;;;5037300;28;20744;-64
2023/06/09 04:02:29;;;;;;;1.65;0.75;;;11.60;99.90;;;;;;5031102;28;20137;-63
2023/06/09 04:04:54;;;;;;;1.35;0.70;;;11.60;99.90;;;;;;5037605;28;20123;-64
2023/06/09 04:07:20;;;;;;;0.52;0.10;;;11.70;99.90;;;;;;5039128;28;20049;-64
2023/06/09 04:09:45;;;;;;;0.10;0.10;;;11.70;99.90;;;;;;5036518;28;20048;-64
2023/06/09 04:12:11;;;;;;;0.35;0.20;;;11.70;99.90;;;;;;5042650;28;20424;-63
2023/06/09 04:14:37;;;;;;;1.08;0.60;;;11.70;99.90;;;;;;5040896;28;20132;-64
2023/06/09 04:17:03;;;;;;;0.20;0.20;;;11.80;99.90;;;;;;5073728;28;20071;-64
2023/06/09 04:19:29;;;;;;;2.15;0.60;;;11.80;99.90;;;;;;5043386;28;20447;-63
2023/06/09 04:21:55;;;;;;;0.17;0.10;;;11.80;99.90;;;;;;5038176;28;20114;-63
2023/06/09 04:24:21;;;;;;;0.35;0.35;;;11.90;99.90;;;;;;5040903;28;20040;-63
2023/06/09 04:26:47;;;;;;;0.20;0.20;;;11.90;99.90;;;;;;5041540;28;20052;-64
2023/06/09 04:29:15;;;;;;;0.40;0.40;;;12.00;99.90;;;;;;5040958;28;20399;-63
2023/06/09 04:31:42;;;;;;;0.28;0.28;;;12.00;99.90;;;;;;5080010;28;20047;-63
2023/06/09 04:34:12;;;;;;;0.30;0.30;;;12.10;99.90;;;;;;5054451;28;20033;-63
2023/06/09 04:36:39;;;;;;;0.50;0.50;;;12.20;99.90;;;;;;5036793;28;20116;-64
2023/06/09 04:39:07;;;;;;;0.60;0.20;;;12.20;99.90;;;;;;5040680;28;20033;-64
2023/06/09 04:41:33;;;;;;;0.88;0.28;;;12.30;99.90;;;;;;5042009;28;20040;-64
2023/06/09 04:44:05;;;;;;;0.10;0.10;;;12.40;99.90;;;;;;5051875;28;20068;-63
2023/06/09 04:46:41;;;;;;;0.30;0.30;;;12.40;99.90;;;;;;5044050;28;20041;-64
2023/06/09 04:49:09;;;;;;;0.43;0.32;;;12.50;99.90;;;;;;5043785;28;20037;-64
2023/06/09 04:51:49;;;;;;;1.13;0.60;;;12.60;99.90;;;;;;5048646;28;20099;-64
2023/06/09 04:54:20;;;;;;;0.75;0.75;;;12.70;99.90;;;;;;5048735;28;20475;-65
2023/06/09 04:56:52;;;;;;;0.52;0.32;;;12.70;99.90;;;;;;5033307;28;20049;-64
2023/06/09 04:59:18;;;;;;;0.28;0.28;;;12.80;99.90;;;;;;5035850;28;20123;-63
2023/06/09 05:01:47;;;;;;;0.68;0.30;;;12.90;99.90;;;;;;5066134;28;20068;-65
2023/06/09 05:04:13;;;;;;;1.00;0.85;;;12.90;99.90;;;;;;5035135;28;20377;-64
2023/06/09 05:06:39;;;;;;;0.60;0.60;;;13.00;99.90;;;;;;5075778;28;20506;-65
2023/06/09 05:09:06;;;;;;;0.52;0.22;;;13.10;99.90;;;;;;5032486;28;20543;-65
2023/06/09 05:11:32;;;;;;;0.65;0.50;;;13.20;99.90;;;;;;5035021;28;20049;-65
2023/06/09 05:13:57;;;;;;;0.98;0.52;;;13.30;99.90;;;;;;5035138;28;20041;-65
2023/06/09 05:16:25;;;;;;;6.03;0.52;;;13.30;99.90;;;;;;5035706;28;20075;-65
2023/06/09 05:18:52;;;;;;;0.30;0.30;;;13.40;99.90;;;;;;5067678;28;20176;-65
2023/06/09 05:21:17;;;;;;;0.20;0.20;;;13.50;99.90;;;;;;5043938;28;20052;-65
2023/06/09 05:23:43;;;;;;;0.80;0.80;;;13.60;99.90;;;;;;5036816;28;20032;-65
2023/06/09 05:26:08;;;;;;;0.45;0.30;;;13.70;99.90;;;;;;5039776;28;20045;-66
2023/06/09 05:28:34;;;;;;;0.30;0.28;;;13.80;99.90;;;;;;5043581;28;20396;-66
2023/06/09 05:31:01;;;;;;;0.52;0.40;;;13.90;99.90;;;;;;5069990;28;20437;-65
2023/06/09 05:33:27;;;;;;;1.15;0.52;;;14.00;99.90;;;;;;5038949;28;20045;-64
2023/06/09 05:35:52;;;;;;;1.27;0.65;;;14.10;99.90;;;;;;5041186;28;20424;-65
2023/06/09 05:38:19;;;;;;;0.38;0.38;;;14.20;99.90;;;;;;5076474;28;20044;-65
2023/06/09 05:40:45;;;;;;;8.68;2.05;;;14.30;99.90;;;;;;5040456;28;20541;-65
2023/06/09 05:43:10;;;;;;;0.63;0.40;;;14.40;99.90;;;;;;5043332;28;20561;-64
2023/06/09 05:45:36;;;;;;;0.52;0.28;;;14.60;99.90;;;;;;5049632;28;20479;-64
2023/06/09 05:48:03;;;;;;;3.53;1.58;;;14.70;99.90;;;;;;5044509;28;20159;-65
2023/06/09 05:50:28;;;;;;;0.40;0.30;;;14.80;99.90;;;;;;5075895;28;20064;-64
2023/06/09 05:52:54;;;;;;;2.08;1.13;;;14.90;99.90;;;;;;5073573;28;20480;-65
2023/06/09 05:55:20;;;;;;;0.20;0.20;;;15.00;99.90;;;;;;5047145;28;20032;-64
2023/06/09 05:57:45;;;;;;;1.52;1.30;;;15.20;99.90;;;;;;5039852;28;20144;-65
2023/06/09 06:00:11;;;;;;;12.70;0.90;;;15.30;99.90;;;;;;5049671;28;20468;-65
2023/06/09 06:02:40;;;;;;;0.32;0.30;;;15.40;99.90;;;;;;5043546;28;20037;-65
2023/06/09 06:05:09;;;;;;;0.10;0.10;;;15.50;99.90;;;;;;5049887;28;20072;-64
2023/06/09 06:07:39;;;;;;;0.28;0.15;;;15.60;99.90;;;;;;5040370;28;20041;-64
2023/06/09 06:10:06;;;;;;;0.20;0.20;;;15.80;99.90;;;;;;5043575;28;20484;-64
2023/06/09 06:12:34;;;;;;;0.35;0.30;;;15.90;99.90;;;;;;5068761;28;20044;-65
2023/06/09 06:15:00;;;;;;;0.28;0.28;;;16.10;99.90;;;;;;5072564;28;20408;-65
2023/06/09 06:17:26;;;;;;;1.90;0.40;;;16.20;99.90;;;;;;5039249;28;20048;-64
2023/06/09 06:19:51;;;;;;;1.77;1.45;;;16.30;99.90;;;;;;5028110;28;20044;-65
2023/06/09 06:22:17;;;;;;;0.45;0.35;;;16.40;99.90;;;;;;5041523;28;20049;-64
2023/06/09 06:24:43;;;;;;;0.70;0.70;;;16.50;99.90;;;;;;5084128;28;20048;-63
2023/06/09 06:27:08;;;;;;;0.30;0.30;;;16.70;99.90;;;;;;5046435;28;20044;-64
2023/06/09 06:29:34;;;;;;;1.10;0.30;;;16.80;99.90;;;;;;5047841;28;20132;-64
2023/06/09 06:32:00;;;;;;;0.35;0.35;;;16.90;99.90;;;;;;5048654;28;20028;-65
2023/06/09 06:34:26;;;;;;;0.60;0.50;;;17.10;99.90;;;;;;5044818;28;20087;-64
2023/06/09 06:36:56;;;;;;;1.25;0.93;;;17.20;99.90;;;;;;5075576;28;20045;-64
2023/06/09 06:39:21;;;;;;;0.43;0.40;;;17.30;99.90;;;;;;5051781;28;20040;-64
2023/06/09 06:41:47;;;;;;;0.90;0.32;;;17.50;99.90;;;;;;5043507;28;20051;-65
2023/06/09 06:44:13;;;;;;;0.52;0.52;;;17.50;99.90;;;;;;5045439;28;20088;-65
2023/06/09 06:46:39;;;;;;;1.75;0.63;;;17.60;99.90;;;;;;5041577;28;20041;-65
2023/06/09 06:49:04;;;;;;;0.80;0.80;;;17.70;99.90;;;;;;5049762;28;20403;-64
2023/06/09 06:51:30;;;;;;;0.73;0.20;;;17.80;99.90;;;;;;5043697;28;20120;-65
2023/06/09 06:53:55;;;;;;;7.32;0.35;;;17.90;99.90;;;;;;5046332;28;20657;-65
2023/06/09 06:56:22;;;;;;;4.43;1.05;;;18.00;99.90;;;;;;5030977;28;20041;-64
2023/06/09 06:58:47;;;;;;;0.03;0.03;;;18.10;99.90;;;;;;5046335;28;20126;-65
2023/06/09 07:01:17;;;;;;;1.45;0.80;;;18.20;99.90;;;;;;5044301;28;20484;-64
2023/06/09 07:03:43;;;;;;;0.30;0.30;;;18.30;99.90;;;;;;5071406;28;20041;-64
2023/06/09 07:06:09;;;;;;;0.10;0.10;;;18.40;99.90;;;;;;5031770;28;20041;-65
2023/06/09 07:08:35;;;;;;;0.40;0.35;;;18.60;99.90;;;;;;5030154;28;20029;-64
2023/06/09 07:11:01;;;;;;;2.55;0.82;;;18.70;99.90;;;;;;5036878;28;20033;-65
2023/06/09 07:13:27;;;;;;;0.35;0.20;;;18.80;99.90;;;;;;5074770;28;20645;-65
2023/06/09 07:15:52;;;;;;;1.13;0.43;;;18.90;99.90;;;;;;5074678;28;20052;-64
2023/06/09 07:18:18;;;;;;;0.50;0.50;;;18.90;99.90;;;;;;5040122;28;20414;-63
2023/06/09 07:20:44;;;;;;;0.20;0.20;;;19.10;99.90;;;;;;5047507;28;20116;-64
2023/06/09 07:23:09;;;;;;;0.30;0.30;;;19.20;99.90;;;;;;5030193;28;20500;-65
2023/06/09 07:25:35;;;;;;;0.35;0.25;;;19.30;99.90;;;;;;5046490;28;20385;-66
2023/06/09 07:28:02;;;;;;;0.35;0.35;;;19.40;99.90;;;;;;5042320;28;20468;-65
2023/06/09 07:30:27;;;;;;;0.35;0.32;;;19.50;99.90;;;;;;5048315;28;20049;-63
2023/06/09 07:32:53;;;;;;;0.28;0.28;;;19.60;99.90;;;;;;5034915;28;20052;-65
2023/06/09 07:35:19;;;;;;;1.48;0.93;;;19.60;99.90;;;;;;5076872;28;20514;-65
2023/06/09 07:37:46;;;;;;;0.40;0.40;;;19.70;99.90;;;;;;5047001;28;20076;-65
2023/06/09 07:40:12;;;;;;;0.77;0.70;;;19.80;99.90;;;;;;5047932;28;20047;-64
2023/06/09 07:42:38;;;;;;;0.40;0.40;;;19.80;99.90;;;;;;5043359;28;20044;-64
2023/06/09 07:45:04;;;;;;;0.30;0.30;;;20.00;99.90;;;;;;5047021;28;20095;-65
2023/06/09 07:47:30;;;;;;;1.08;0.32;;;20.10;99.90;;;;;;5037086;28;20042;-64
2023/06/09 07:49:56;;;;;;;0.52;0.43;;;20.10;99.90;;;;;;5030725;28;20041;-63
2023/06/09 07:52:21;;;;;;;0.82;0.80;;;20.20;99.90;;;;;;5036594;28;20095;-63
2023/06/09 07:54:47;;;;;;;0.30;0.30;;;20.30;99.90;;;;;;5047860;28;20041;-65
2023/06/09 07:57:13;;;;;;;0.50;0.22;;;20.40;99.90;;;;;;5044171;28;20076;-64
2023/06/09 07:59:40;;;;;;;0.95;0.20;;;20.50;99.90;;;;;;5069817;28;20427;-64
2023/06/09 08:02:05;;;;;;;1.80;0.63;;;20.60;99.90;;;;;;5042867;28;20047;-64
2023/06/09 08:04:31;;;;;;;0.82;0.22;;;20.70;99.90;;;;;;5048176;28;20037;-65
2023/06/09 08:06:59;;;;;;;0.47;0.30;;;20.80;99.90;;;;;;5051878;28;20049;-63
2023/06/09 08:09:26;;;;;;;0.32;0.32;;;20.90;99.90;;;;;;5049128;28;20052;-64
2023/06/09 08:11:52;;;;;;;0.63;0.20;;;21.00;99.90;;;;;;5047692;28;20451;-64
2023/06/09 08:14:17;;;;;;;1.13;0.30;;;21.10;99.90;;;;;;5048416;28;20045;-65
2023/06/09 08:16:43;;;;;;;0.30;0.30;;;21.10;99.90;;;;;;5043776;28;20295;-66
2023/06/09 08:19:09;;;;;;;3.60;1.00;;;21.20;99.90;;;;;;5048538;28;20097;-65
2023/06/09 08:21:42;;;;;;;0.95;0.90;;;21.30;99.90;;;;;;5047948;28;20025;-65
2023/06/09 08:24:08;;;;;;;1.50;0.52;;;21.40;99.90;;;;;;5033128;28;20041;-65
2023/06/09 08:26:34;;;;;;;1.08;1.05;;;21.60;99.90;;;;;;5041260;28;20056;-65
2023/06/09 08:28:59;;;;;;;0.80;0.45;;;21.70;99.90;;;;;;5047890;28;20480;-64
2023/06/09 08:31:27;;;;;;;0.28;0.28;;;21.70;99.90;;;;;;5051486;28;20126;-65
2023/06/09 08:33:54;;;;;;;0.30;0.30;;;21.80;99.90;;;;;;5050862;28;20080;-64
2023/06/09 08:36:20;;;;;;;1.08;0.80;;;21.90;99.90;;;;;;5046646;28;20042;-64
2023/06/09 08:38:46;;;;;;;1.85;0.50;;;22.00;99.90;;;;;;5044655;28;20250;-65
2023/06/09 08:41:14;;;;;;;0.70;0.70;;;22.20;99.90;;;;;;5045242;28;20037;-64
2023/06/09 08:43:40;;;;;;;1.10;0.90;;;22.30;99.90;;;;;;5045409;28;20488;-66
2023/06/09 08:46:09;;;;;;;0.75;0.52;;;22.30;99.90;;;;;;5048839;28;20045;-64
2023/06/09 08:48:37;;;;;;;0.65;0.57;;;22.50;99.90;;;;;;5038970;28;20101;-64
2023/06/09 08:51:03;;;;;;;0.70;0.70;;;22.60;99.90;;;;;;5033211;28;20033;-67
2023/06/09 08:53:29;;;;;;;0.43;0.43;;;22.80;99.90;;;;;;5043646;28;20045;-66
2023/06/09 08:55:55;;;;;;;1.80;0.55;;;22.90;99.90;;;;;;5071781;28;20046;-65
2023/06/09 08:58:22;;;;;;;0.40;0.38;;;23.00;99.90;;;;;;5050433;28;20084;-65
2023/06/09 09:00:49;;;;;;;0.20;0.20;;;23.00;99.90;;;;;;5049455;28;20072;-64
2023/06/09 09:03:16;;;;;;;1.42;0.70;;;23.20;99.90;;;;;;5050243;28;20041;-65
2023/06/09 09:05:43;;;;;;;1.50;0.45;;;23.30;99.90;;;;;;5044164;28;20045;-66
2023/06/09 09:08:08;;;;;;;1.45;0.32;;;23.30;99.90;;;;;;5049473;28;20147;-64
2023/06/09 09:10:34;;;;;;;0.13;0.13;;;23.40;99.90;;;;;;5045170;28;20041;-66
2023/06/09 09:12:59;;;;;;;5.57;1.10;;;23.50;99.90;;;;;;5047691;28;20041;-65
2023/06/09 09:15:25;;;;;;;0.10;0.10;;;23.60;99.90;;;;;;5052313;28;20037;-63
2023/06/09 09:17:51;;;;;;;0.32;0.30;;;23.80;99.90;;;;;;5042686;28;20076;-66
2023/06/09 09:20:18;;;;;;;0.95;0.65;;;23.80;99.90;;;;;;5084256;28;20055;-65
2023/06/09 09:22:43;;;;;;;6.15;1.58;;;23.90;99.90;;;;;;5035365;28;20103;-65
2023/06/09 09:25:09;;;;;;;5.80;1.35;;;23.90;99.90;;;;;;5032126;28;20037;-65
2023/06/09 09:27:34;;;;;;;2.10;1.30;;;23.90;99.90;;;;;;5032915;28;20047;-65
2023/06/09 09:30:00;;;;;;;0.47;0.47;;;24.00;99.90;;;;;;5050010;28;20132;-65
2023/06/09 09:32:26;;;;;;;1.05;0.55;;;24.00;99.90;;;;;;5036421;28;20037;-66
2023/06/09 09:34:52;;;;;;;1.15;0.80;;;24.10;99.90;;;;;;5030553;28;20041;-66
2023/06/09 09:37:18;;;;;;;0.40;0.40;;;24.10;99.90;;;;;;5030087;28;20115;-65
2023/06/09 09:39:53;;;;;;;0.85;0.75;;;24.20;99.90;;;;;;5044510;28;20039;-65
2023/06/09 09:42:20;;;;;;;0.45;0.45;;;24.20;99.90;;;;;;5045294;28;20414;-64
2023/06/09 09:44:47;;;;;;;0.47;0.47;;;24.20;99.90;;;;;;5048352;28;20089;-67
2023/06/09 09:47:15;;;;;;;1.17;1.08;;;24.30;99.90;;;;;;5038369;28;20091;-65
2023/06/09 09:49:58;;;;;;;0.70;0.50;;;24.30;99.90;;;;;;5039598;28;20579;-64
2023/06/09 09:52:25;;;;;;;2.00;0.57;;;24.40;99.90;;;;;;5045645;28;20803;-65
2023/06/09 09:54:56;;;;;;;1.15;1.05;;;24.50;99.90;;;;;;5048676;28;20037;-66
2023/06/09 09:57:24;;;;;;;2.30;0.80;;;24.50;99.90;;;;;;5057909;28;20128;-65
2023/06/09 09:59:51;;;;;;;0.60;0.60;;;24.60;99.90;;;;;;5064920;28;20099;-65
2023/06/09 10:02:23;;;;;;;1.38;1.05;;;24.70;99.90;;;;;;5046157;28;20033;-67
2023/06/09 10:04:50;;;;;;;1.83;0.85;;;24.70;99.90;;;;;;5050044;28;20037;-66
2023/06/09 10:07:21;;;;;;;0.90;0.90;;;24.80;99.90;;;;;;5044995;28;20048;-65
2023/06/09 10:09:49;;;;;;;1.17;0.82;;;24.80;99.90;;;;;;5082912;28;20124;-65
2023/06/09 10:12:15;;;;;;;1.38;1.05;;;24.90;99.90;;;;;;5048787;28;20048;-65
2023/06/09 10:14:41;;;;;;;0.43;0.43;;;24.90;99.90;;;;;;5050490;28;20052;-68
2023/06/09 10:17:08;;;;;;;1.35;0.38;;;25.00;99.90;;;;;;5081574;28;20037;-66
2023/06/09 10:19:34;;;;;;;2.20;0.90;;;25.00;99.90;;;;;;5083297;28;20041;-67
2023/06/09 10:22:01;;;;;;;1.50;0.50;;;25.10;99.90;;;;;;5039612;28;20042;-65
2023/06/09 10:24:27;;;;;;;1.77;1.05;;;25.20;99.90;;;;;;5043076;28;20052;-65
2023/06/09 10:26:53;;;;;;;2.15;0.70;;;25.20;99.90;;;;;;5040067;28;20037;-65
2023/06/09 10:29:20;;;;;;;1.23;0.60;;;25.20;99.90;;;;;;5046723;28;20048;-65
2023/06/09 10:31:46;;;;;;;0.57;0.57;;;25.40;99.90;;;;;;5043491;28;20036;-66
2023/06/09 10:34:15;;;;;;;0.35;0.30;;;25.40;99.90;;;;;;5042257;28;20033;-66
2023/06/09 10:36:40;;;;;;;3.25;1.35;;;25.50;99.90;;;;;;5072649;28;20037;-66
2023/06/09 10:39:22;;;;;;;0.80;0.30;;;25.60;99.90;;;;;;5040714;28;20091;-66
2023/06/09 10:41:58;;;;;;;1.03;1.03;;;25.70;99.90;;;;;;5037933;28;20047;-65
2023/06/09 10:44:53;;;;;;;1.02;0.90;;;25.80;99.90;;;;;;5044942;28;20044;-67
2023/06/09 10:47:42;;;;;;;1.10;0.68;;;25.80;99.90;;;;;;5037110;28;20048;-66
2023/06/09 10:50:24;;;;;;;1.45;0.95;;;25.90;99.90;;;;;;5072286;28;20056;-65
2023/06/09 10:52:54;;;;;;;;;;;25.90;99.90;;;;;;5044937;28;20025;-65
2023/06/09 10:55:22;;;;;;;0.32;0.25;;;26.00;99.90;;;;;;5039932;28;19970;-66
2023/06/09 10:57:49;;;;;;;1.00;0.70;;;26.10;99.90;;;;;;5029247;28;20059;-65
2023/06/09 11:00:15;;;;;;;0.25;0.25;;;26.10;99.90;;;;;;5042848;28;20435;-66
2023/06/09 11:02:45;;;;;;;0.57;0.43;;;26.20;99.90;;;;;;5038743;28;20435;-67
2023/06/09 11:05:12;;;;;;;1.33;1.13;;;26.20;99.90;;;;;;5069736;28;20041;-66
2023/06/09 11:07:52;;;;;;;0.77;0.77;;;26.30;99.90;;;;;;5035580;28;20447;-66
2023/06/09 11:10:17;;;;;;;0.60;0.30;;;26.30;99.90;;;;;;5040301;28;20045;-67
2023/06/09 11:12:45;;;;;;;1.02;0.93;;;26.30;99.90;;;;;;5034274;28;20095;-65
2023/06/09 11:15:11;;;;;;;0.80;0.80;;;26.40;99.90;;;;;;5039755;28;20045;-66
2023/06/09 11:17:42;;;;;;;1.17;0.57;;;26.40;99.90;;;;;;5069873;28;20483;-64
2023/06/09 11:20:26;;;;;;;1.20;1.15;;;26.50;99.90;;;;;;5038407;28;20068;-65
2023/06/09 11:22:53;;;;;;;6.10;2.20;;;26.40;99.90;;;;;;5040287;28;20059;-67
2023/06/09 11:25:18;;;;;;;2.28;1.17;;;26.40;99.90;;;;;;5041489;28;20516;-66
2023/06/09 11:27:46;;;;;;;2.40;1.23;;;26.50;99.90;;;;;;5037460;28;20107;-66
2023/06/09 11:30:19;;;;;;;3.13;1.42;;;26.60;99.90;;;;;;5037564;28;20036;-66
2023/06/09 11:32:49;;;;;;;5.70;0.95;;;26.70;99.90;;;;;;5033044;28;20032;-65
2023/06/09 11:37:59;;;;;;;0.45;0.45;;;26.80;99.90;;;;;;5032196;28;20045;-65
2023/06/09 11:40:26;;;;;;;0.75;0.63;;;26.90;99.90;;;;;;5040372;28;20041;-66
2023/06/09 11:42:51;;;;;;;0.68;0.65;;;27.00;99.90;;;;;;5043017;28;20033;-65
2023/06/09 11:45:17;;;;;;;0.85;0.82;;;27.00;99.90;;;;;;5038074;28;20415;-65
2023/06/09 11:47:45;;;;;;;1.55;0.88;;;27.00;99.90;;;;;;5064921;28;20450;-66
2023/06/09 11:50:15;;;;;;;1.13;0.63;;;27.00;99.90;;;;;;5040625;28;20041;-66
2023/06/09 11:52:43;;;;;;;0.93;0.93;;;26.90;99.90;;;;;;5038764;28;20530;-66
2023/06/09 11:55:11;;;;;;;0.77;0.75;;;26.90;99.90;;;;;;5070168;28;20467;-66
2023/06/09 11:57:37;;;;;;;1.17;0.93;;;27.00;99.90;;;;;;5071686;28;20056;-65
2023/06/09 12:00:12;;;;;;;2.20;1.17;;;27.00;99.90;;;;;;5039356;28;20056;-66
2023/06/09 12:02:47;;;;;;;1.38;1.00;;;27.00;99.90;;;;;;5037685;28;20064;-66
2023/06/09 12:05:14;;;;;;;2.20;0.82;;;27.00;99.90;;;;;;5039240;28;20083;-66
2023/06/09 12:07:47;;;;;;;1.52;1.40;;;27.00;99.90;;;;;;5041577;28;20423;-66
2023/06/09 12:10:17;;;;;;;2.67;1.27;;;27.00;99.90;;;;;;5037550;28;20329;-67
2023/06/09 12:12:50;;;;;;;1.35;1.20;;;27.00;99.90;;;;;;5040748;28;20481;-66
2023/06/09 12:15:18;;;;;;;0.70;0.70;;;27.10;99.90;;;;;;5033155;28;20055;-67
2023/06/09 12:17:46;;;;;;;0.63;0.47;;;27.20;99.90;;;;;;5040296;28;20090;-67
2023/06/09 12:20:32;;;;;;;1.42;1.33;;;27.20;99.90;;;;;;5037642;28;20408;-65
2023/06/09 12:22:58;;;;;;;1.30;1.20;;;27.20;99.90;;;;;;5033807;28;20484;-65
2023/06/09 12:25:31;;;;;;;0.73;0.50;;;27.20;99.90;;;;;;5065633;28;20132;-66
2023/06/09 12:28:12;;;;;;;1.05;0.75;;;27.30;99.90;;;;;;5064752;28;20068;-67
2023/06/09 12:30:42;;;;;;;1.02;0.95;;;27.30;99.90;;;;;;5035672;28;20045;-66
2023/06/09 12:33:09;;;;;;;0.47;0.47;;;27.40;99.90;;;;;;5036204;28;20179;-65
2023/06/09 12:35:40;;;;;;;1.42;1.02;;;27.40;99.90;;;;;;5037395;28;20040;-66
2023/06/09 12:38:23;;;;;;;1.10;0.95;;;27.40;99.90;;;;;;5068354;28;20048;-66
2023/06/09 12:41:08;;;;;;;1.98;1.20;;;27.50;99.90;;;;;;5038644;28;20040;-66
2023/06/09 12:43:55;;;;;;;0.93;0.50;;;27.50;99.90;;;;;;5038605;28;20037;-66
2023/06/09 12:46:33;;;;;;;1.17;1.05;;;27.50;99.90;;;;;;5036180;28;20041;-65
2023/06/09 12:49:03;;;;;;;9.98;1.30;;;27.60;99.90;;;;;;5027127;28;20399;-67
2023/06/09 12:51:33;;;;;;;0.47;0.47;;;27.60;99.90;;;;;;5044625;28;20275;-65
2023/06/09 12:53:59;;;;;;;1.15;0.93;;;27.70;99.90;;;;;;5043509;28;20037;-68